sensor_id;sensor_type;location;lat;lon;timestamp;P1;durP1;ratioP1;P2;durP2;ratioP2
18076;SDS011;9165;45.714;11.362;2022-12-08T00:00:06;4.10;;;2.80;;
18076;SDS011;9165;45.714;11.362;2022-12-08T00:02:33;3.50;;;2.33;;
18076;SDS011;9165;45.714;11.362;2022-12-08T00:04:59;4.50;;;2.40;;
18076;SDS011;9165;45.714;11.362;2022-12-08T00:07:43;2.57;;;2.30;;
18076;SDS011;9165;45.714;11.362;2022-12-08T00:10:27;3.57;;;2.73;;
18076;SDS011;9165;45.714;11.362;2022-12-08T00:12:53;3.17;;;2.40;;
18076;SDS011;9165;45.714;11.362;2022-12-08T00:15:21;3.23;;;2.30;;
18076;SDS011;9165;45.714;11.362;2022-12-08T00:17:48;4.40;;;2.27;;
18076;SDS011;9165;45.714;11.362;2022-12-08T00:20:14;6.10;;;2.67;;
18076;SDS011;9165;45.714;11.362;2022-12-08T00:22:41;3.63;;;2.53;;
18076;SDS011;9165;45.714;11.362;2022-12-08T00:25:07;3.10;;;2.37;;
18076;SDS011;9165;45.714;11.362;2022-12-08T00:27:34;3.00;;;1.90;;
18076;SDS011;9165;45.714;11.362;2022-12-08T00:30:00;3.07;;;2.10;;
18076;SDS011;9165;45.714;11.362;2022-12-08T00:32:28;2.23;;;2.00;;
18076;SDS011;9165;45.714;11.362;2022-12-08T00:34:55;3.83;;;1.93;;
18076;SDS011;9165;45.714;11.362;2022-12-08T00:37:22;3.47;;;2.37;;
18076;SDS011;9165;45.714;11.362;2022-12-08T00:39:48;2.67;;;2.00;;
18076;SDS011;9165;45.714;11.362;2022-12-08T00:42:15;3.00;;;1.70;;
18076;SDS011;9165;45.714;11.362;2022-12-08T00:44:42;3.40;;;2.10;;
18076;SDS011;9165;45.714;11.362;2022-12-08T00:47:09;2.23;;;2.00;;
18076;SDS011;9165;45.714;11.362;2022-12-08T00:49:37;2.50;;;1.90;;
18076;SDS011;9165;45.714;11.362;2022-12-08T00:52:03;3.63;;;2.03;;
18076;SDS011;9165;45.714;11.362;2022-12-08T00:54:30;3.40;;;2.47;;
18076;SDS011;9165;45.714;11.362;2022-12-08T00:56:59;5.80;;;3.00;;
18076;SDS011;9165;45.714;11.362;2022-12-08T00:59:26;4.20;;;2.30;;
18076;SDS011;9165;45.714;11.362;2022-12-08T01:01:52;3.67;;;2.70;;
18076;SDS011;9165;45.714;11.362;2022-12-08T01:04:19;2.40;;;2.10;;
18076;SDS011;9165;45.714;11.362;2022-12-08T01:06:47;3.60;;;2.03;;
18076;SDS011;9165;45.714;11.362;2022-12-08T01:09:14;1.93;;;1.47;;
18076;SDS011;9165;45.714;11.362;2022-12-08T01:11:41;5.37;;;2.07;;
18076;SDS011;9165;45.714;11.362;2022-12-08T01:14:09;3.73;;;2.00;;
18076;SDS011;9165;45.714;11.362;2022-12-08T01:16:36;1.83;;;1.57;;
18076;SDS011;9165;45.714;11.362;2022-12-08T01:19:04;2.33;;;1.80;;
18076;SDS011;9165;45.714;11.362;2022-12-08T01:21:30;3.70;;;2.10;;
18076;SDS011;9165;45.714;11.362;2022-12-08T01:23:59;1.60;;;1.50;;
18076;SDS011;9165;45.714;11.362;2022-12-08T01:26:26;2.23;;;1.87;;
18076;SDS011;9165;45.714;11.362;2022-12-08T01:28:53;3.00;;;2.00;;
18076;SDS011;9165;45.714;11.362;2022-12-08T01:31:20;2.30;;;1.57;;
18076;SDS011;9165;45.714;11.362;2022-12-08T01:33:46;2.73;;;1.97;;
18076;SDS011;9165;45.714;11.362;2022-12-08T01:36:17;2.00;;;1.80;;
18076;SDS011;9165;45.714;11.362;2022-12-08T01:38:44;2.20;;;2.00;;
18076;SDS011;9165;45.714;11.362;2022-12-08T01:41:14;1.80;;;1.50;;
18076;SDS011;9165;45.714;11.362;2022-12-08T01:43:54;2.57;;;1.57;;
18076;SDS011;9165;45.714;11.362;2022-12-08T01:46:21;4.40;;;1.70;;
18076;SDS011;9165;45.714;11.362;2022-12-08T01:48:48;2.07;;;1.47;;
18076;SDS011;9165;45.714;11.362;2022-12-08T01:51:15;1.60;;;1.50;;
18076;SDS011;9165;45.714;11.362;2022-12-08T01:53:42;2.23;;;1.93;;
18076;SDS011;9165;45.714;11.362;2022-12-08T01:56:09;1.40;;;1.30;;
18076;SDS011;9165;45.714;11.362;2022-12-08T01:58:40;1.80;;;1.57;;
18076;SDS011;9165;45.714;11.362;2022-12-08T02:01:08;2.27;;;1.60;;
18076;SDS011;9165;45.714;11.362;2022-12-08T02:03:37;3.60;;;1.90;;
18076;SDS011;9165;45.714;11.362;2022-12-08T02:06:06;3.40;;;1.70;;
18076;SDS011;9165;45.714;11.362;2022-12-08T02:08:33;3.87;;;1.60;;
18076;SDS011;9165;45.714;11.362;2022-12-08T02:11:01;1.17;;;1.07;;
18076;SDS011;9165;45.714;11.362;2022-12-08T02:13:28;1.63;;;1.20;;
18076;SDS011;9165;45.714;11.362;2022-12-08T02:15:59;2.30;;;1.20;;
18076;SDS011;9165;45.714;11.362;2022-12-08T02:18:33;1.77;;;1.60;;
18076;SDS011;9165;45.714;11.362;2022-12-08T02:21:03;2.37;;;1.47;;
18076;SDS011;9165;45.714;11.362;2022-12-08T02:23:34;2.33;;;1.40;;
18076;SDS011;9165;45.714;11.362;2022-12-08T02:26:17;1.53;;;1.30;;
18076;SDS011;9165;45.714;11.362;2022-12-08T02:28:56;1.77;;;1.50;;
18076;SDS011;9165;45.714;11.362;2022-12-08T02:31:30;1.60;;;1.50;;
18076;SDS011;9165;45.714;11.362;2022-12-08T02:36:46;1.07;;;0.97;;
18076;SDS011;9165;45.714;11.362;2022-12-08T02:39:19;1.80;;;1.43;;
18076;SDS011;9165;45.714;11.362;2022-12-08T02:41:48;2.80;;;1.30;;
18076;SDS011;9165;45.714;11.362;2022-12-08T02:44:16;4.07;;;1.40;;
18076;SDS011;9165;45.714;11.362;2022-12-08T02:46:46;2.70;;;1.27;;
18076;SDS011;9165;45.714;11.362;2022-12-08T02:49:13;1.60;;;1.50;;
18076;SDS011;9165;45.714;11.362;2022-12-08T02:51:41;2.00;;;1.47;;
18076;SDS011;9165;45.714;11.362;2022-12-08T02:54:09;1.53;;;1.30;;
18076;SDS011;9165;45.714;11.362;2022-12-08T02:56:49;1.60;;;1.27;;
18076;SDS011;9165;45.714;11.362;2022-12-08T02:59:24;2.50;;;1.57;;
18076;SDS011;9165;45.714;11.362;2022-12-08T03:04:37;1.57;;;1.43;;
18076;SDS011;9165;45.714;11.362;2022-12-08T03:07:06;1.70;;;1.20;;
18076;SDS011;9165;45.714;11.362;2022-12-08T03:09:36;1.83;;;1.17;;
18076;SDS011;9165;45.714;11.362;2022-12-08T03:12:05;2.03;;;1.37;;
18076;SDS011;9165;45.714;11.362;2022-12-08T03:14:33;2.00;;;1.33;;
18076;SDS011;9165;45.714;11.362;2022-12-08T03:17:01;2.70;;;1.50;;
18076;SDS011;9165;45.714;11.362;2022-12-08T03:19:29;1.43;;;1.33;;
18076;SDS011;9165;45.714;11.362;2022-12-08T03:21:58;2.00;;;1.30;;
18076;SDS011;9165;45.714;11.362;2022-12-08T03:24:28;1.47;;;1.37;;
18076;SDS011;9165;45.714;11.362;2022-12-08T03:26:58;3.23;;;1.40;;
18076;SDS011;9165;45.714;11.362;2022-12-08T03:29:26;1.50;;;1.30;;
18076;SDS011;9165;45.714;11.362;2022-12-08T03:31:53;1.10;;;1.00;;
18076;SDS011;9165;45.714;11.362;2022-12-08T03:34:21;1.30;;;1.20;;
18076;SDS011;9165;45.714;11.362;2022-12-08T03:36:49;1.27;;;1.17;;
18076;SDS011;9165;45.714;11.362;2022-12-08T03:39:15;1.77;;;1.30;;
18076;SDS011;9165;45.714;11.362;2022-12-08T03:41:42;2.53;;;1.30;;
18076;SDS011;9165;45.714;11.362;2022-12-08T03:44:11;1.57;;;1.17;;
18076;SDS011;9165;45.714;11.362;2022-12-08T03:46:37;2.57;;;1.23;;
18076;SDS011;9165;45.714;11.362;2022-12-08T03:49:04;1.10;;;1.07;;
18076;SDS011;9165;45.714;11.362;2022-12-08T03:51:31;1.30;;;1.20;;
18076;SDS011;9165;45.714;11.362;2022-12-08T03:53:57;1.10;;;1.00;;
18076;SDS011;9165;45.714;11.362;2022-12-08T03:56:25;2.10;;;1.03;;
18076;SDS011;9165;45.714;11.362;2022-12-08T03:58:52;2.60;;;1.37;;
18076;SDS011;9165;45.714;11.362;2022-12-08T04:01:21;1.47;;;1.37;;
18076;SDS011;9165;45.714;11.362;2022-12-08T04:03:47;1.20;;;1.00;;
18076;SDS011;9165;45.714;11.362;2022-12-08T04:06:14;2.50;;;1.30;;
18076;SDS011;9165;45.714;11.362;2022-12-08T04:08:41;1.33;;;1.03;;
18076;SDS011;9165;45.714;11.362;2022-12-08T04:11:07;1.40;;;1.23;;
18076;SDS011;9165;45.714;11.362;2022-12-08T04:13:34;1.80;;;1.20;;
18076;SDS011;9165;45.714;11.362;2022-12-08T04:16:02;1.10;;;1.10;;
18076;SDS011;9165;45.714;11.362;2022-12-08T04:18:30;1.57;;;1.37;;
18076;SDS011;9165;45.714;11.362;2022-12-08T04:20:57;3.00;;;1.20;;
18076;SDS011;9165;45.714;11.362;2022-12-08T04:23:24;2.00;;;1.17;;
18076;SDS011;9165;45.714;11.362;2022-12-08T04:25:50;1.57;;;1.27;;
18076;SDS011;9165;45.714;11.362;2022-12-08T04:28:17;3.13;;;1.33;;
18076;SDS011;9165;45.714;11.362;2022-12-08T04:30:44;1.93;;;1.30;;
18076;SDS011;9165;45.714;11.362;2022-12-08T04:33:10;1.30;;;1.20;;
18076;SDS011;9165;45.714;11.362;2022-12-08T04:35:38;1.90;;;1.50;;
18076;SDS011;9165;45.714;11.362;2022-12-08T04:38:05;1.77;;;1.67;;
18076;SDS011;9165;45.714;11.362;2022-12-08T04:40:31;1.50;;;1.33;;
18076;SDS011;9165;45.714;11.362;2022-12-08T04:42:58;1.47;;;1.10;;
18076;SDS011;9165;45.714;11.362;2022-12-08T04:45:25;1.30;;;1.20;;
18076;SDS011;9165;45.714;11.362;2022-12-08T04:47:52;1.60;;;1.50;;
18076;SDS011;9165;45.714;11.362;2022-12-08T04:50:19;3.60;;;1.33;;
18076;SDS011;9165;45.714;11.362;2022-12-08T04:52:47;1.63;;;1.30;;
18076;SDS011;9165;45.714;11.362;2022-12-08T04:55:13;1.63;;;1.27;;
18076;SDS011;9165;45.714;11.362;2022-12-08T04:57:40;1.77;;;1.40;;
18076;SDS011;9165;45.714;11.362;2022-12-08T05:00:07;1.30;;;1.20;;
18076;SDS011;9165;45.714;11.362;2022-12-08T05:02:35;1.43;;;1.20;;
18076;SDS011;9165;45.714;11.362;2022-12-08T05:05:01;1.90;;;1.20;;
18076;SDS011;9165;45.714;11.362;2022-12-08T05:07:28;1.00;;;1.00;;
18076;SDS011;9165;45.714;11.362;2022-12-08T05:09:56;2.30;;;1.20;;
18076;SDS011;9165;45.714;11.362;2022-12-08T05:12:22;2.13;;;1.10;;
18076;SDS011;9165;45.714;11.362;2022-12-08T05:14:49;1.80;;;1.20;;
18076;SDS011;9165;45.714;11.362;2022-12-08T05:17:16;2.10;;;1.33;;
18076;SDS011;9165;45.714;11.362;2022-12-08T05:19:43;1.57;;;1.20;;
18076;SDS011;9165;45.714;11.362;2022-12-08T05:22:09;1.97;;;1.47;;
18076;SDS011;9165;45.714;11.362;2022-12-08T05:24:36;2.00;;;1.40;;
18076;SDS011;9165;45.714;11.362;2022-12-08T05:27:04;2.20;;;1.70;;
18076;SDS011;9165;45.714;11.362;2022-12-08T05:29:31;2.63;;;1.70;;
18076;SDS011;9165;45.714;11.362;2022-12-08T05:31:57;1.37;;;1.27;;
18076;SDS011;9165;45.714;11.362;2022-12-08T05:34:24;1.20;;;1.10;;
18076;SDS011;9165;45.714;11.362;2022-12-08T05:36:51;1.73;;;1.40;;
18076;SDS011;9165;45.714;11.362;2022-12-08T05:39:17;1.33;;;1.23;;
18076;SDS011;9165;45.714;11.362;2022-12-08T05:41:44;1.70;;;1.40;;
18076;SDS011;9165;45.714;11.362;2022-12-08T05:44:12;2.73;;;1.70;;
18076;SDS011;9165;45.714;11.362;2022-12-08T05:46:39;2.30;;;1.60;;
18076;SDS011;9165;45.714;11.362;2022-12-08T05:49:06;2.13;;;1.87;;
18076;SDS011;9165;45.714;11.362;2022-12-08T05:51:33;1.93;;;1.43;;
18076;SDS011;9165;45.714;11.362;2022-12-08T05:53:59;2.10;;;1.67;;
18076;SDS011;9165;45.714;11.362;2022-12-08T05:56:26;2.30;;;1.87;;
18076;SDS011;9165;45.714;11.362;2022-12-08T05:58:53;2.20;;;1.77;;
18076;SDS011;9165;45.714;11.362;2022-12-08T06:01:22;1.83;;;1.57;;
18076;SDS011;9165;45.714;11.362;2022-12-08T06:03:49;2.03;;;1.70;;
18076;SDS011;9165;45.714;11.362;2022-12-08T06:06:16;2.00;;;1.80;;
18076;SDS011;9165;45.714;11.362;2022-12-08T06:08:43;5.63;;;1.83;;
18076;SDS011;9165;45.714;11.362;2022-12-08T06:11:09;2.67;;;2.10;;
18076;SDS011;9165;45.714;11.362;2022-12-08T06:13:43;2.47;;;1.87;;
18076;SDS011;9165;45.714;11.362;2022-12-08T06:16:09;2.47;;;2.10;;
18076;SDS011;9165;45.714;11.362;2022-12-08T06:18:37;2.23;;;1.80;;
18076;SDS011;9165;45.714;11.362;2022-12-08T06:21:04;2.90;;;1.80;;
18076;SDS011;9165;45.714;11.362;2022-12-08T06:23:31;2.60;;;2.00;;
18076;SDS011;9165;45.714;11.362;2022-12-08T06:25:59;2.23;;;1.83;;
18076;SDS011;9165;45.714;11.362;2022-12-08T06:28:25;3.13;;;2.20;;
18076;SDS011;9165;45.714;11.362;2022-12-08T06:30:52;2.70;;;2.20;;
18076;SDS011;9165;45.714;11.362;2022-12-08T06:33:18;4.53;;;1.97;;
18076;SDS011;9165;45.714;11.362;2022-12-08T06:35:46;2.07;;;1.77;;
18076;SDS011;9165;45.714;11.362;2022-12-08T06:38:13;2.13;;;1.93;;
18076;SDS011;9165;45.714;11.362;2022-12-08T06:40:43;1.83;;;1.60;;
18076;SDS011;9165;45.714;11.362;2022-12-08T06:43:10;2.00;;;1.80;;
18076;SDS011;9165;45.714;11.362;2022-12-08T06:45:39;2.20;;;2.00;;
18076;SDS011;9165;45.714;11.362;2022-12-08T06:48:06;3.03;;;1.73;;
18076;SDS011;9165;45.714;11.362;2022-12-08T06:50:33;3.13;;;2.03;;
18076;SDS011;9165;45.714;11.362;2022-12-08T06:53:01;3.10;;;1.83;;
18076;SDS011;9165;45.714;11.362;2022-12-08T06:55:28;2.13;;;1.93;;
18076;SDS011;9165;45.714;11.362;2022-12-08T06:57:54;2.73;;;2.10;;
18076;SDS011;9165;45.714;11.362;2022-12-08T07:00:21;2.57;;;2.10;;
18076;SDS011;9165;45.714;11.362;2022-12-08T07:02:48;3.60;;;2.57;;
18076;SDS011;9165;45.714;11.362;2022-12-08T07:05:14;3.50;;;2.27;;
18076;SDS011;9165;45.714;11.362;2022-12-08T07:07:41;4.50;;;3.00;;
18076;SDS011;9165;45.714;11.362;2022-12-08T07:10:09;3.43;;;2.43;;
18076;SDS011;9165;45.714;11.362;2022-12-08T07:12:36;2.90;;;2.23;;
18076;SDS011;9165;45.714;11.362;2022-12-08T07:15:03;4.83;;;2.23;;
18076;SDS011;9165;45.714;11.362;2022-12-08T07:17:30;3.93;;;2.60;;
18076;SDS011;9165;45.714;11.362;2022-12-08T07:19:56;4.63;;;2.90;;
18076;SDS011;9165;45.714;11.362;2022-12-08T07:22:23;3.80;;;3.07;;
18076;SDS011;9165;45.714;11.362;2022-12-08T07:24:50;2.63;;;2.20;;
18076;SDS011;9165;45.714;11.362;2022-12-08T07:27:18;6.87;;;3.23;;
18076;SDS011;9165;45.714;11.362;2022-12-08T07:29:45;3.67;;;2.40;;
18076;SDS011;9165;45.714;11.362;2022-12-08T07:32:11;4.07;;;2.63;;
18076;SDS011;9165;45.714;11.362;2022-12-08T07:34:38;4.57;;;3.37;;
18076;SDS011;9165;45.714;11.362;2022-12-08T07:37:05;3.53;;;2.40;;
18076;SDS011;9165;45.714;11.362;2022-12-08T07:39:31;4.63;;;3.13;;
18076;SDS011;9165;45.714;11.362;2022-12-08T07:41:58;15.37;;;3.57;;
18076;SDS011;9165;45.714;11.362;2022-12-08T07:44:26;4.80;;;3.70;;
18076;SDS011;9165;45.714;11.362;2022-12-08T07:46:52;6.27;;;4.40;;
18076;SDS011;9165;45.714;11.362;2022-12-08T07:49:19;6.77;;;3.73;;
18076;SDS011;9165;45.714;11.362;2022-12-08T07:51:45;7.47;;;4.33;;
18076;SDS011;9165;45.714;11.362;2022-12-08T07:54:12;5.23;;;3.33;;
18076;SDS011;9165;45.714;11.362;2022-12-08T07:56:39;3.83;;;2.90;;
18076;SDS011;9165;45.714;11.362;2022-12-08T07:59:05;5.10;;;3.00;;
18076;SDS011;9165;45.714;11.362;2022-12-08T08:01:34;3.53;;;2.77;;
18076;SDS011;9165;45.714;11.362;2022-12-08T08:04:02;3.87;;;2.87;;
18076;SDS011;9165;45.714;11.362;2022-12-08T08:06:29;5.07;;;3.10;;
18076;SDS011;9165;45.714;11.362;2022-12-08T08:08:56;4.07;;;2.60;;
18076;SDS011;9165;45.714;11.362;2022-12-08T08:11:22;4.63;;;2.87;;
18076;SDS011;9165;45.714;11.362;2022-12-08T08:13:49;4.83;;;2.50;;
18076;SDS011;9165;45.714;11.362;2022-12-08T08:16:16;3.50;;;2.57;;
18076;SDS011;9165;45.714;11.362;2022-12-08T08:18:45;4.17;;;2.97;;
18076;SDS011;9165;45.714;11.362;2022-12-08T08:21:11;2.90;;;2.50;;
18076;SDS011;9165;45.714;11.362;2022-12-08T08:23:38;5.53;;;2.80;;
18076;SDS011;9165;45.714;11.362;2022-12-08T08:26:05;3.93;;;2.90;;
18076;SDS011;9165;45.714;11.362;2022-12-08T08:28:32;4.27;;;3.03;;
18076;SDS011;9165;45.714;11.362;2022-12-08T08:30:59;4.73;;;2.70;;
18076;SDS011;9165;45.714;11.362;2022-12-08T08:33:27;4.90;;;3.07;;
18076;SDS011;9165;45.714;11.362;2022-12-08T08:35:55;5.90;;;3.73;;
18076;SDS011;9165;45.714;11.362;2022-12-08T08:38:22;6.80;;;3.70;;
18076;SDS011;9165;45.714;11.362;2022-12-08T08:40:49;8.30;;;4.30;;
18076;SDS011;9165;45.714;11.362;2022-12-08T08:43:15;4.33;;;3.67;;
18076;SDS011;9165;45.714;11.362;2022-12-08T08:45:54;8.90;;;4.87;;
18076;SDS011;9165;45.714;11.362;2022-12-08T08:48:21;5.80;;;3.43;;
18076;SDS011;9165;45.714;11.362;2022-12-08T08:50:47;6.93;;;3.47;;
18076;SDS011;9165;45.714;11.362;2022-12-08T08:53:15;13.23;;;4.47;;
18076;SDS011;9165;45.714;11.362;2022-12-08T08:55:42;7.13;;;4.70;;
18076;SDS011;9165;45.714;11.362;2022-12-08T08:58:09;6.03;;;4.23;;
18076;SDS011;9165;45.714;11.362;2022-12-08T09:00:35;5.37;;;3.83;;
18076;SDS011;9165;45.714;11.362;2022-12-08T09:03:02;6.40;;;3.60;;
18076;SDS011;9165;45.714;11.362;2022-12-08T09:05:29;6.90;;;4.80;;
18076;SDS011;9165;45.714;11.362;2022-12-08T09:07:55;5.50;;;4.10;;
18076;SDS011;9165;45.714;11.362;2022-12-08T09:10:23;5.30;;;3.70;;
18076;SDS011;9165;45.714;11.362;2022-12-08T09:12:50;8.03;;;3.97;;
18076;SDS011;9165;45.714;11.362;2022-12-08T09:15:17;5.63;;;4.43;;
18076;SDS011;9165;45.714;11.362;2022-12-08T09:17:44;8.97;;;4.97;;
18076;SDS011;9165;45.714;11.362;2022-12-08T09:20:11;8.10;;;5.83;;
18076;SDS011;9165;45.714;11.362;2022-12-08T09:22:38;10.37;;;5.80;;
18076;SDS011;9165;45.714;11.362;2022-12-08T09:25:05;9.57;;;5.43;;
18076;SDS011;9165;45.714;11.362;2022-12-08T09:27:33;8.30;;;5.30;;
18076;SDS011;9165;45.714;11.362;2022-12-08T09:29:59;7.93;;;5.27;;
18076;SDS011;9165;45.714;11.362;2022-12-08T09:32:26;7.77;;;5.23;;
18076;SDS011;9165;45.714;11.362;2022-12-08T09:34:52;6.53;;;4.07;;
18076;SDS011;9165;45.714;11.362;2022-12-08T09:37:19;5.60;;;4.10;;
18076;SDS011;9165;45.714;11.362;2022-12-08T09:39:46;11.17;;;7.77;;
18076;SDS011;9165;45.714;11.362;2022-12-08T09:42:12;11.30;;;8.50;;
18076;SDS011;9165;45.714;11.362;2022-12-08T09:44:46;7.00;;;5.80;;
18076;SDS011;9165;45.714;11.362;2022-12-08T09:47:17;9.10;;;5.90;;
18076;SDS011;9165;45.714;11.362;2022-12-08T09:49:46;12.57;;;7.00;;
18076;SDS011;9165;45.714;11.362;2022-12-08T09:52:17;13.73;;;8.20;;
18076;SDS011;9165;45.714;11.362;2022-12-08T09:54:45;11.27;;;7.87;;
18076;SDS011;9165;45.714;11.362;2022-12-08T09:57:12;7.73;;;5.23;;
18076;SDS011;9165;45.714;11.362;2022-12-08T09:59:40;8.63;;;4.47;;
18076;SDS011;9165;45.714;11.362;2022-12-08T10:02:20;8.00;;;5.50;;
18076;SDS011;9165;45.714;11.362;2022-12-08T10:04:47;8.90;;;5.83;;
18076;SDS011;9165;45.714;11.362;2022-12-08T10:07:15;8.73;;;4.77;;
18076;SDS011;9165;45.714;11.362;2022-12-08T10:09:44;8.63;;;5.77;;
18076;SDS011;9165;45.714;11.362;2022-12-08T10:12:13;7.47;;;5.47;;
18076;SDS011;9165;45.714;11.362;2022-12-08T10:14:41;15.87;;;8.07;;
18076;SDS011;9165;45.714;11.362;2022-12-08T10:17:13;9.20;;;5.67;;
18076;SDS011;9165;45.714;11.362;2022-12-08T10:19:42;7.67;;;5.73;;
18076;SDS011;9165;45.714;11.362;2022-12-08T10:22:11;6.47;;;4.80;;
18076;SDS011;9165;45.714;11.362;2022-12-08T10:24:42;6.67;;;4.73;;
18076;SDS011;9165;45.714;11.362;2022-12-08T10:27:09;5.73;;;5.13;;
18076;SDS011;9165;45.714;11.362;2022-12-08T10:29:37;8.13;;;6.37;;
18076;SDS011;9165;45.714;11.362;2022-12-08T10:32:08;7.10;;;4.90;;
18076;SDS011;9165;45.714;11.362;2022-12-08T10:34:36;6.53;;;4.87;;
18076;SDS011;9165;45.714;11.362;2022-12-08T10:37:23;11.27;;;8.03;;
18076;SDS011;9165;45.714;11.362;2022-12-08T10:39:55;32.37;;;20.60;;
18076;SDS011;9165;45.714;11.362;2022-12-08T10:42:24;28.00;;;14.77;;
18076;SDS011;9165;45.714;11.362;2022-12-08T10:44:58;14.53;;;8.00;;
18076;SDS011;9165;45.714;11.362;2022-12-08T10:47:26;5.67;;;5.07;;
18076;SDS011;9165;45.714;11.362;2022-12-08T10:50:18;5.53;;;3.63;;
18076;SDS011;9165;45.714;11.362;2022-12-08T10:52:45;5.47;;;4.07;;
18076;SDS011;9165;45.714;11.362;2022-12-08T10:55:15;6.90;;;4.63;;
18076;SDS011;9165;45.714;11.362;2022-12-08T10:57:42;7.37;;;4.33;;
18076;SDS011;9165;45.714;11.362;2022-12-08T11:00:12;10.47;;;4.67;;
18076;SDS011;9165;45.714;11.362;2022-12-08T11:02:48;6.93;;;4.50;;
18076;SDS011;9165;45.714;11.362;2022-12-08T11:05:18;8.10;;;5.90;;
18076;SDS011;9165;45.714;11.362;2022-12-08T11:07:45;8.17;;;6.47;;
18076;SDS011;9165;45.714;11.362;2022-12-08T11:10:14;9.60;;;5.50;;
18076;SDS011;9165;45.714;11.362;2022-12-08T11:12:42;13.80;;;7.67;;
18076;SDS011;9165;45.714;11.362;2022-12-08T11:15:12;8.10;;;5.80;;
18076;SDS011;9165;45.714;11.362;2022-12-08T11:17:40;11.43;;;6.00;;
18076;SDS011;9165;45.714;11.362;2022-12-08T11:20:20;7.97;;;5.23;;
18076;SDS011;9165;45.714;11.362;2022-12-08T11:22:50;8.27;;;5.53;;
18076;SDS011;9165;45.714;11.362;2022-12-08T11:25:17;8.03;;;5.00;;
18076;SDS011;9165;45.714;11.362;2022-12-08T11:27:45;7.93;;;5.73;;
18076;SDS011;9165;45.714;11.362;2022-12-08T11:30:13;5.63;;;4.30;;
18076;SDS011;9165;45.714;11.362;2022-12-08T11:32:41;6.33;;;4.40;;
18076;SDS011;9165;45.714;11.362;2022-12-08T11:35:09;5.80;;;4.13;;
18076;SDS011;9165;45.714;11.362;2022-12-08T11:37:43;10.60;;;4.10;;
18076;SDS011;9165;45.714;11.362;2022-12-08T11:40:13;5.83;;;4.83;;
18076;SDS011;9165;45.714;11.362;2022-12-08T11:42:43;7.87;;;5.30;;
18076;SDS011;9165;45.714;11.362;2022-12-08T11:45:16;7.73;;;4.60;;
18076;SDS011;9165;45.714;11.362;2022-12-08T11:47:46;7.10;;;5.00;;
18076;SDS011;9165;45.714;11.362;2022-12-08T11:50:16;4.23;;;3.70;;
18076;SDS011;9165;45.714;11.362;2022-12-08T11:52:46;12.70;;;9.30;;
18076;SDS011;9165;45.714;11.362;2022-12-08T11:55:17;21.43;;;11.80;;
18076;SDS011;9165;45.714;11.362;2022-12-08T11:57:47;9.70;;;6.63;;
18076;SDS011;9165;45.714;11.362;2022-12-08T12:00:14;9.40;;;6.57;;
18076;SDS011;9165;45.714;11.362;2022-12-08T12:02:43;14.03;;;7.47;;
18076;SDS011;9165;45.714;11.362;2022-12-08T12:05:15;58.37;;;35.60;;
18076;SDS011;9165;45.714;11.362;2022-12-08T12:07:53;14.70;;;10.40;;
18076;SDS011;9165;45.714;11.362;2022-12-08T12:10:28;8.17;;;6.40;;
18076;SDS011;9165;45.714;11.362;2022-12-08T12:13:02;12.20;;;8.97;;
18076;SDS011;9165;45.714;11.362;2022-12-08T12:18:27;17.87;;;11.97;;
18076;SDS011;9165;45.714;11.362;2022-12-08T12:20:57;9.50;;;7.50;;
18076;SDS011;9165;45.714;11.362;2022-12-08T12:23:27;11.37;;;8.33;;
18076;SDS011;9165;45.714;11.362;2022-12-08T12:25:57;12.77;;;8.90;;
18076;SDS011;9165;45.714;11.362;2022-12-08T12:28:25;34.37;;;21.80;;
18076;SDS011;9165;45.714;11.362;2022-12-08T12:30:54;12.37;;;8.63;;
18076;SDS011;9165;45.714;11.362;2022-12-08T12:33:23;10.50;;;7.00;;
18076;SDS011;9165;45.714;11.362;2022-12-08T12:35:50;6.83;;;5.47;;
18076;SDS011;9165;45.714;11.362;2022-12-08T12:38:19;9.17;;;5.77;;
18076;SDS011;9165;45.714;11.362;2022-12-08T12:41:05;9.17;;;6.43;;
18076;SDS011;9165;45.714;11.362;2022-12-08T12:43:33;8.30;;;5.43;;
18076;SDS011;9165;45.714;11.362;2022-12-08T12:48:47;8.53;;;5.30;;
18076;SDS011;9165;45.714;11.362;2022-12-08T12:54:00;7.33;;;5.47;;
18076;SDS011;9165;45.714;11.362;2022-12-08T12:56:47;6.13;;;4.30;;
18076;SDS011;9165;45.714;11.362;2022-12-08T12:59:21;6.33;;;5.23;;
18076;SDS011;9165;45.714;11.362;2022-12-08T13:01:56;6.13;;;5.00;;
18076;SDS011;9165;45.714;11.362;2022-12-08T13:04:29;8.87;;;5.23;;
18076;SDS011;9165;45.714;11.362;2022-12-08T13:06:57;8.17;;;5.87;;
18076;SDS011;9165;45.714;11.362;2022-12-08T13:09:29;9.87;;;6.67;;
18076;SDS011;9165;45.714;11.362;2022-12-08T13:11:59;7.63;;;5.70;;
18076;SDS011;9165;45.714;11.362;2022-12-08T13:14:27;7.50;;;5.80;;
18076;SDS011;9165;45.714;11.362;2022-12-08T13:16:56;7.07;;;5.47;;
18076;SDS011;9165;45.714;11.362;2022-12-08T13:19:22;9.27;;;5.07;;
18076;SDS011;9165;45.714;11.362;2022-12-08T13:21:50;8.17;;;5.57;;
18076;SDS011;9165;45.714;11.362;2022-12-08T13:24:27;12.33;;;5.97;;
18076;SDS011;9165;45.714;11.362;2022-12-08T13:29:36;9.97;;;6.40;;
18076;SDS011;9165;45.714;11.362;2022-12-08T13:32:03;11.67;;;6.17;;
18076;SDS011;9165;45.714;11.362;2022-12-08T13:34:33;8.47;;;5.90;;
18076;SDS011;9165;45.714;11.362;2022-12-08T13:37:12;8.03;;;6.17;;
18076;SDS011;9165;45.714;11.362;2022-12-08T13:39:43;7.87;;;5.47;;
18076;SDS011;9165;45.714;11.362;2022-12-08T13:42:14;7.73;;;5.73;;
18076;SDS011;9165;45.714;11.362;2022-12-08T13:44:46;8.40;;;5.37;;
18076;SDS011;9165;45.714;11.362;2022-12-08T13:47:15;6.57;;;4.73;;
18076;SDS011;9165;45.714;11.362;2022-12-08T13:49:43;13.20;;;6.00;;
18076;SDS011;9165;45.714;11.362;2022-12-08T13:52:15;9.00;;;5.70;;
18076;SDS011;9165;45.714;11.362;2022-12-08T13:54:43;8.27;;;5.60;;
18076;SDS011;9165;45.714;11.362;2022-12-08T13:57:14;9.67;;;5.83;;
18076;SDS011;9165;45.714;11.362;2022-12-08T13:59:44;9.17;;;6.50;;
18076;SDS011;9165;45.714;11.362;2022-12-08T14:02:14;9.30;;;6.13;;
18076;SDS011;9165;45.714;11.362;2022-12-08T14:04:43;8.80;;;7.17;;
18076;SDS011;9165;45.714;11.362;2022-12-08T14:07:11;10.17;;;6.93;;
18076;SDS011;9165;45.714;11.362;2022-12-08T14:09:38;8.77;;;6.70;;
18076;SDS011;9165;45.714;11.362;2022-12-08T14:12:05;9.80;;;6.57;;
18076;SDS011;9165;45.714;11.362;2022-12-08T14:14:33;12.03;;;7.30;;
18076;SDS011;9165;45.714;11.362;2022-12-08T14:17:03;10.60;;;7.87;;
18076;SDS011;9165;45.714;11.362;2022-12-08T14:19:32;14.90;;;9.03;;
18076;SDS011;9165;45.714;11.362;2022-12-08T14:22:00;14.40;;;9.97;;
18076;SDS011;9165;45.714;11.362;2022-12-08T14:24:28;22.30;;;13.23;;
18076;SDS011;9165;45.714;11.362;2022-12-08T14:26:55;14.53;;;10.50;;
18076;SDS011;9165;45.714;11.362;2022-12-08T14:29:36;16.20;;;9.53;;
18076;SDS011;9165;45.714;11.362;2022-12-08T14:32:04;17.70;;;9.53;;
18076;SDS011;9165;45.714;11.362;2022-12-08T14:34:35;15.00;;;10.27;;
18076;SDS011;9165;45.714;11.362;2022-12-08T14:37:07;19.10;;;10.13;;
18076;SDS011;9165;45.714;11.362;2022-12-08T14:39:37;17.83;;;10.13;;
18076;SDS011;9165;45.714;11.362;2022-12-08T14:42:04;14.63;;;9.50;;
18076;SDS011;9165;45.714;11.362;2022-12-08T14:44:31;13.93;;;10.23;;
18076;SDS011;9165;45.714;11.362;2022-12-08T14:47:04;18.63;;;9.83;;
18076;SDS011;9165;45.714;11.362;2022-12-08T14:49:31;15.63;;;10.93;;
18076;SDS011;9165;45.714;11.362;2022-12-08T14:51:59;16.47;;;11.10;;
18076;SDS011;9165;45.714;11.362;2022-12-08T14:54:26;14.47;;;10.57;;
18076;SDS011;9165;45.714;11.362;2022-12-08T14:56:54;13.50;;;10.13;;
18076;SDS011;9165;45.714;11.362;2022-12-08T14:59:24;18.97;;;9.87;;
18076;SDS011;9165;45.714;11.362;2022-12-08T15:01:52;12.43;;;10.03;;
18076;SDS011;9165;45.714;11.362;2022-12-08T15:04:21;15.13;;;10.57;;
18076;SDS011;9165;45.714;11.362;2022-12-08T15:06:49;13.27;;;10.50;;
18076;SDS011;9165;45.714;11.362;2022-12-08T15:09:27;15.93;;;10.80;;